sensor_id;sensor_type;location;lat;lon;timestamp;P1;durP1;ratioP1;P2;durP2;ratioP2
59016;SDS011;44800;55.600;38.134;2023-05-21T00:02:05;26.00;;;14.00;;
59016;SDS011;44800;55.600;38.134;2023-05-21T00:04:37;23.13;;;13.18;;
59016;SDS011;44800;55.600;38.134;2023-05-21T00:07:06;21.25;;;12.32;;
59016;SDS011;44800;55.600;38.134;2023-05-21T00:09:36;32.33;;;13.88;;
59016;SDS011;44800;55.600;38.134;2023-05-21T00:12:05;25.42;;;12.20;;
59016;SDS011;44800;55.600;38.134;2023-05-21T00:14:35;23.42;;;12.43;;
59016;SDS011;44800;55.600;38.134;2023-05-21T00:17:03;24.50;;;12.38;;
59016;SDS011;44800;55.600;38.134;2023-05-21T00:19:32;22.23;;;12.75;;
59016;SDS011;44800;55.600;38.134;2023-05-21T00:22:01;27.85;;;12.55;;
59016;SDS011;44800;55.600;38.134;2023-05-21T00:24:30;31.30;;;12.10;;
59016;SDS011;44800;55.600;38.134;2023-05-21T00:26:59;28.25;;;14.18;;
59016;SDS011;44800;55.600;38.134;2023-05-21T00:29:28;26.13;;;13.07;;
59016;SDS011;44800;55.600;38.134;2023-05-21T00:31:56;22.88;;;13.07;;
59016;SDS011;44800;55.600;38.134;2023-05-21T00:34:24;23.15;;;12.70;;
59016;SDS011;44800;55.600;38.134;2023-05-21T00:36:53;20.38;;;11.98;;
59016;SDS011;44800;55.600;38.134;2023-05-21T00:39:22;21.65;;;11.75;;
59016;SDS011;44800;55.600;38.134;2023-05-21T00:41:50;20.48;;;12.57;;
59016;SDS011;44800;55.600;38.134;2023-05-21T00:44:21;26.45;;;12.43;;
59016;SDS011;44800;55.600;38.134;2023-05-21T00:46:49;25.77;;;12.93;;
59016;SDS011;44800;55.600;38.134;2023-05-21T00:49:21;23.60;;;12.90;;
59016;SDS011;44800;55.600;38.134;2023-05-21T00:51:50;26.27;;;12.82;;
59016;SDS011;44800;55.600;38.134;2023-05-21T00:54:20;22.02;;;11.48;;
59016;SDS011;44800;55.600;38.134;2023-05-21T00:56:49;26.60;;;12.32;;
59016;SDS011;44800;55.600;38.134;2023-05-21T00:59:17;24.30;;;10.85;;
59016;SDS011;44800;55.600;38.134;2023-05-21T01:01:47;22.98;;;12.30;;
59016;SDS011;44800;55.600;38.134;2023-05-21T01:04:21;25.25;;;12.15;;
59016;SDS011;44800;55.600;38.134;2023-05-21T01:06:50;22.52;;;12.13;;
59016;SDS011;44800;55.600;38.134;2023-05-21T01:09:21;27.02;;;12.45;;
59016;SDS011;44800;55.600;38.134;2023-05-21T01:11:50;23.45;;;11.30;;
59016;SDS011;44800;55.600;38.134;2023-05-21T01:14:18;21.30;;;11.23;;
59016;SDS011;44800;55.600;38.134;2023-05-21T01:16:49;22.25;;;11.85;;
59016;SDS011;44800;55.600;38.134;2023-05-21T01:19:18;23.00;;;11.50;;
59016;SDS011;44800;55.600;38.134;2023-05-21T01:21:48;20.00;;;12.60;;
59016;SDS011;44800;55.600;38.134;2023-05-21T01:24:21;25.00;;;11.57;;
59016;SDS011;44800;55.600;38.134;2023-05-21T01:26:49;23.42;;;12.70;;
59016;SDS011;44800;55.600;38.134;2023-05-21T01:29:17;21.48;;;11.15;;
59016;SDS011;44800;55.600;38.134;2023-05-21T01:31:51;24.40;;;13.40;;
59016;SDS011;44800;55.600;38.134;2023-05-21T01:34:24;20.92;;;12.50;;
59016;SDS011;44800;55.600;38.134;2023-05-21T01:36:56;18.67;;;10.43;;
59016;SDS011;44800;55.600;38.134;2023-05-21T01:39:35;17.95;;;11.02;;
59016;SDS011;44800;55.600;38.134;2023-05-21T01:42:07;17.58;;;10.82;;
59016;SDS011;44800;55.600;38.134;2023-05-21T01:44:36;21.77;;;11.43;;
59016;SDS011;44800;55.600;38.134;2023-05-21T01:47:04;19.65;;;11.32;;
59016;SDS011;44800;55.600;38.134;2023-05-21T01:49:33;18.58;;;10.45;;
59016;SDS011;44800;55.600;38.134;2023-05-21T01:52:02;18.55;;;10.63;;
59016;SDS011;44800;55.600;38.134;2023-05-21T01:54:32;20.40;;;11.13;;
59016;SDS011;44800;55.600;38.134;2023-05-21T01:57:01;19.77;;;11.02;;
59016;SDS011;44800;55.600;38.134;2023-05-21T01:59:30;19.27;;;10.48;;
59016;SDS011;44800;55.600;38.134;2023-05-21T02:01:58;19.70;;;10.13;;
59016;SDS011;44800;55.600;38.134;2023-05-21T02:04:27;20.67;;;11.10;;
59016;SDS011;44800;55.600;38.134;2023-05-21T02:06:57;21.70;;;12.32;;
59016;SDS011;44800;55.600;38.134;2023-05-21T02:09:25;20.27;;;11.50;;
59016;SDS011;44800;55.600;38.134;2023-05-21T02:11:54;23.65;;;12.20;;
59016;SDS011;44800;55.600;38.134;2023-05-21T02:14:24;20.67;;;11.68;;
59016;SDS011;44800;55.600;38.134;2023-05-21T02:16:52;22.80;;;11.98;;
59016;SDS011;44800;55.600;38.134;2023-05-21T02:19:21;18.95;;;10.70;;
59016;SDS011;44800;55.600;38.134;2023-05-21T02:21:49;25.63;;;12.70;;
59016;SDS011;44800;55.600;38.134;2023-05-21T02:24:18;22.95;;;12.10;;
59016;SDS011;44800;55.600;38.134;2023-05-21T02:26:47;21.40;;;12.05;;
59016;SDS011;44800;55.600;38.134;2023-05-21T02:29:17;23.67;;;11.93;;
59016;SDS011;44800;55.600;38.134;2023-05-21T02:31:46;27.75;;;13.77;;
59016;SDS011;44800;55.600;38.134;2023-05-21T02:34:16;24.05;;;12.18;;
59016;SDS011;44800;55.600;38.134;2023-05-21T02:36:46;22.88;;;14.25;;
59016;SDS011;44800;55.600;38.134;2023-05-21T02:39:18;20.67;;;11.90;;
59016;SDS011;44800;55.600;38.134;2023-05-21T02:41:46;18.45;;;12.25;;
59016;SDS011;44800;55.600;38.134;2023-05-21T02:44:15;22.23;;;11.27;;
59016;SDS011;44800;55.600;38.134;2023-05-21T02:46:44;19.48;;;11.50;;
59016;SDS011;44800;55.600;38.134;2023-05-21T02:49:14;21.35;;;11.18;;
59016;SDS011;44800;55.600;38.134;2023-05-21T02:51:43;20.35;;;10.88;;
59016;SDS011;44800;55.600;38.134;2023-05-21T02:54:11;21.42;;;12.20;;
59016;SDS011;44800;55.600;38.134;2023-05-21T02:56:40;19.42;;;10.88;;
59016;SDS011;44800;55.600;38.134;2023-05-21T02:59:08;20.27;;;10.68;;
59016;SDS011;44800;55.600;38.134;2023-05-21T03:01:37;20.17;;;10.65;;
59016;SDS011;44800;55.600;38.134;2023-05-21T03:04:08;14.30;;;10.98;;
59016;SDS011;44800;55.600;38.134;2023-05-21T03:06:36;17.08;;;10.65;;
59016;SDS011;44800;55.600;38.134;2023-05-21T03:09:05;15.95;;;10.18;;
59016;SDS011;44800;55.600;38.134;2023-05-21T03:11:33;13.88;;;10.70;;
59016;SDS011;44800;55.600;38.134;2023-05-21T03:14:01;17.55;;;9.98;;
59016;SDS011;44800;55.600;38.134;2023-05-21T03:16:30;15.82;;;9.65;;
59016;SDS011;44800;55.600;38.134;2023-05-21T03:19:00;16.83;;;11.18;;
59016;SDS011;44800;55.600;38.134;2023-05-21T03:21:30;21.10;;;12.50;;
59016;SDS011;44800;55.600;38.134;2023-05-21T03:23:59;16.92;;;10.27;;
59016;SDS011;44800;55.600;38.134;2023-05-21T03:26:28;21.13;;;10.65;;
59016;SDS011;44800;55.600;38.134;2023-05-21T03:28:57;18.60;;;10.18;;
59016;SDS011;44800;55.600;38.134;2023-05-21T03:31:27;17.60;;;9.82;;
59016;SDS011;44800;55.600;38.134;2023-05-21T03:33:55;17.98;;;11.00;;
59016;SDS011;44800;55.600;38.134;2023-05-21T03:36:23;19.95;;;11.88;;
59016;SDS011;44800;55.600;38.134;2023-05-21T03:38:53;20.73;;;11.25;;
59016;SDS011;44800;55.600;38.134;2023-05-21T03:41:22;22.90;;;11.38;;
59016;SDS011;44800;55.600;38.134;2023-05-21T03:43:50;19.27;;;11.43;;
59016;SDS011;44800;55.600;38.134;2023-05-21T03:46:19;21.27;;;11.48;;
59016;SDS011;44800;55.600;38.134;2023-05-21T03:48:47;20.15;;;11.38;;
59016;SDS011;44800;55.600;38.134;2023-05-21T03:51:16;17.75;;;11.05;;
59016;SDS011;44800;55.600;38.134;2023-05-21T03:53:45;17.25;;;10.40;;
59016;SDS011;44800;55.600;38.134;2023-05-21T03:56:15;17.83;;;11.15;;
59016;SDS011;44800;55.600;38.134;2023-05-21T03:58:44;16.63;;;10.32;;
59016;SDS011;44800;55.600;38.134;2023-05-21T04:01:13;17.83;;;9.88;;
59016;SDS011;44800;55.600;38.134;2023-05-21T04:03:43;17.65;;;10.05;;
59016;SDS011;44800;55.600;38.134;2023-05-21T04:06:12;17.58;;;10.85;;
59016;SDS011;44800;55.600;38.134;2023-05-21T04:08:41;14.77;;;9.00;;
59016;SDS011;44800;55.600;38.134;2023-05-21T04:11:10;15.75;;;9.73;;
59016;SDS011;44800;55.600;38.134;2023-05-21T04:13:39;17.33;;;9.60;;
59016;SDS011;44800;55.600;38.134;2023-05-21T04:16:08;14.90;;;9.48;;
59016;SDS011;44800;55.600;38.134;2023-05-21T04:18:40;15.27;;;9.45;;
59016;SDS011;44800;55.600;38.134;2023-05-21T04:21:11;15.38;;;9.70;;
59016;SDS011;44800;55.600;38.134;2023-05-21T04:23:39;11.80;;;8.30;;
59016;SDS011;44800;55.600;38.134;2023-05-21T04:26:08;12.35;;;9.05;;
59016;SDS011;44800;55.600;38.134;2023-05-21T04:28:39;16.65;;;9.05;;
59016;SDS011;44800;55.600;38.134;2023-05-21T04:31:08;12.75;;;8.95;;
59016;SDS011;44800;55.600;38.134;2023-05-21T04:33:39;14.93;;;9.68;;
59016;SDS011;44800;55.600;38.134;2023-05-21T04:36:11;12.88;;;9.88;;
59016;SDS011;44800;55.600;38.134;2023-05-21T04:38:42;12.45;;;8.68;;
59016;SDS011;44800;55.600;38.134;2023-05-21T04:41:11;15.35;;;10.00;;
59016;SDS011;44800;55.600;38.134;2023-05-21T04:43:41;13.20;;;9.02;;
59016;SDS011;44800;55.600;38.134;2023-05-21T04:46:10;13.70;;;9.00;;
59016;SDS011;44800;55.600;38.134;2023-05-21T04:48:39;11.05;;;8.25;;
59016;SDS011;44800;55.600;38.134;2023-05-21T04:51:08;14.48;;;9.13;;
59016;SDS011;44800;55.600;38.134;2023-05-21T04:53:36;14.43;;;8.73;;
59016;SDS011;44800;55.600;38.134;2023-05-21T04:56:06;19.30;;;9.65;;
59016;SDS011;44800;55.600;38.134;2023-05-21T04:58:35;19.17;;;9.48;;
59016;SDS011;44800;55.600;38.134;2023-05-21T05:01:07;16.83;;;9.25;;
59016;SDS011;44800;55.600;38.134;2023-05-21T05:03:35;18.45;;;10.43;;
59016;SDS011;44800;55.600;38.134;2023-05-21T05:06:04;16.42;;;9.55;;
59016;SDS011;44800;55.600;38.134;2023-05-21T05:08:34;16.83;;;8.73;;
59016;SDS011;44800;55.600;38.134;2023-05-21T05:11:03;16.88;;;9.68;;
59016;SDS011;44800;55.600;38.134;2023-05-21T05:13:31;13.80;;;9.07;;
59016;SDS011;44800;55.600;38.134;2023-05-21T05:16:00;10.85;;;8.40;;
59016;SDS011;44800;55.600;38.134;2023-05-21T05:18:30;10.38;;;8.00;;
59016;SDS011;44800;55.600;38.134;2023-05-21T05:20:59;11.75;;;8.80;;
59016;SDS011;44800;55.600;38.134;2023-05-21T05:23:28;11.23;;;7.78;;
59016;SDS011;44800;55.600;38.134;2023-05-21T05:25:56;12.93;;;8.70;;
59016;SDS011;44800;55.600;38.134;2023-05-21T05:28:25;12.13;;;7.53;;
59016;SDS011;44800;55.600;38.134;2023-05-21T05:30:53;10.50;;;6.55;;
59016;SDS011;44800;55.600;38.134;2023-05-21T05:33:22;9.40;;;7.22;;
59016;SDS011;44800;55.600;38.134;2023-05-21T05:35:51;10.13;;;6.00;;
59016;SDS011;44800;55.600;38.134;2023-05-21T05:38:21;8.85;;;5.40;;
59016;SDS011;44800;55.600;38.134;2023-05-21T05:40:49;7.75;;;6.05;;
59016;SDS011;44800;55.600;38.134;2023-05-21T05:43:18;9.68;;;6.72;;
59016;SDS011;44800;55.600;38.134;2023-05-21T05:45:46;9.00;;;6.82;;
59016;SDS011;44800;55.600;38.134;2023-05-21T05:48:15;8.40;;;6.07;;
59016;SDS011;44800;55.600;38.134;2023-05-21T05:50:43;8.05;;;5.40;;
59016;SDS011;44800;55.600;38.134;2023-05-21T05:53:13;7.40;;;5.35;;
59016;SDS011;44800;55.600;38.134;2023-05-21T05:55:42;8.27;;;4.85;;
59016;SDS011;44800;55.600;38.134;2023-05-21T05:58:10;7.03;;;6.22;;
59016;SDS011;44800;55.600;38.134;2023-05-21T06:00:39;9.15;;;5.45;;
59016;SDS011;44800;55.600;38.134;2023-05-21T06:03:07;8.60;;;5.57;;
59016;SDS011;44800;55.600;38.134;2023-05-21T06:05:35;5.82;;;4.10;;
59016;SDS011;44800;55.600;38.134;2023-05-21T06:08:04;4.80;;;4.35;;
59016;SDS011;44800;55.600;38.134;2023-05-21T06:10:35;5.25;;;3.90;;
59016;SDS011;44800;55.600;38.134;2023-05-21T06:13:03;5.82;;;4.20;;
59016;SDS011;44800;55.600;38.134;2023-05-21T06:15:32;4.90;;;4.13;;
59016;SDS011;44800;55.600;38.134;2023-05-21T06:18:00;6.60;;;4.65;;
59016;SDS011;44800;55.600;38.134;2023-05-21T06:20:29;5.82;;;3.97;;
59016;SDS011;44800;55.600;38.134;2023-05-21T06:22:57;7.00;;;4.82;;
59016;SDS011;44800;55.600;38.134;2023-05-21T06:25:26;6.57;;;3.90;;
59016;SDS011;44800;55.600;38.134;2023-05-21T06:27:56;5.15;;;3.75;;
59016;SDS011;44800;55.600;38.134;2023-05-21T06:30:24;3.67;;;3.05;;
59016;SDS011;44800;55.600;38.134;2023-05-21T06:32:53;6.13;;;3.40;;
59016;SDS011;44800;55.600;38.134;2023-05-21T06:35:22;6.00;;;3.40;;
59016;SDS011;44800;55.600;38.134;2023-05-21T06:37:50;4.65;;;3.55;;
59016;SDS011;44800;55.600;38.134;2023-05-21T06:40:18;4.85;;;3.38;;
59016;SDS011;44800;55.600;38.134;2023-05-21T06:42:47;4.07;;;3.33;;
59016;SDS011;44800;55.600;38.134;2023-05-21T06:45:18;4.07;;;2.92;;
59016;SDS011;44800;55.600;38.134;2023-05-21T06:47:46;7.43;;;4.50;;
59016;SDS011;44800;55.600;38.134;2023-05-21T06:50:15;5.82;;;3.83;;
59016;SDS011;44800;55.600;38.134;2023-05-21T06:52:43;5.65;;;3.17;;
59016;SDS011;44800;55.600;38.134;2023-05-21T06:55:12;4.78;;;3.30;;
59016;SDS011;44800;55.600;38.134;2023-05-21T06:57:40;3.63;;;2.97;;
59016;SDS011;44800;55.600;38.134;2023-05-21T07:00:10;3.97;;;3.40;;
59016;SDS011;44800;55.600;38.134;2023-05-21T07:02:40;5.28;;;3.30;;
59016;SDS011;44800;55.600;38.134;2023-05-21T07:05:09;5.30;;;3.53;;
59016;SDS011;44800;55.600;38.134;2023-05-21T07:07:37;2.97;;;2.55;;
59016;SDS011;44800;55.600;38.134;2023-05-21T07:10:06;4.03;;;2.65;;
59016;SDS011;44800;55.600;38.134;2023-05-21T07:12:35;3.72;;;2.67;;
59016;SDS011;44800;55.600;38.134;2023-05-21T07:15:05;5.78;;;2.58;;
59016;SDS011;44800;55.600;38.134;2023-05-21T07:17:35;6.13;;;3.03;;
59016;SDS011;44800;55.600;38.134;2023-05-21T07:20:05;5.13;;;3.00;;
59016;SDS011;44800;55.600;38.134;2023-05-21T07:22:36;4.68;;;3.17;;
59016;SDS011;44800;55.600;38.134;2023-05-21T07:25:05;4.32;;;3.17;;
59016;SDS011;44800;55.600;38.134;2023-05-21T07:27:34;4.07;;;3.00;;
59016;SDS011;44800;55.600;38.134;2023-05-21T07:30:03;3.65;;;2.50;;
59016;SDS011;44800;55.600;38.134;2023-05-21T07:32:32;4.03;;;3.55;;
59016;SDS011;44800;55.600;38.134;2023-05-21T07:35:01;4.03;;;3.40;;
59016;SDS011;44800;55.600;38.134;2023-05-21T07:37:32;9.10;;;3.65;;
59016;SDS011;44800;55.600;38.134;2023-05-21T07:40:01;4.60;;;3.30;;
59016;SDS011;44800;55.600;38.134;2023-05-21T07:42:30;4.38;;;2.97;;
59016;SDS011;44800;55.600;38.134;2023-05-21T07:44:59;4.85;;;3.65;;
59016;SDS011;44800;55.600;38.134;2023-05-21T07:47:31;4.75;;;3.70;;
59016;SDS011;44800;55.600;38.134;2023-05-21T07:50:00;3.95;;;3.20;;
59016;SDS011;44800;55.600;38.134;2023-05-21T07:52:30;3.60;;;3.30;;
59016;SDS011;44800;55.600;38.134;2023-05-21T07:55:00;3.53;;;3.22;;
59016;SDS011;44800;55.600;38.134;2023-05-21T07:57:30;5.10;;;3.45;;
59016;SDS011;44800;55.600;38.134;2023-05-21T07:59:58;4.57;;;3.38;;
59016;SDS011;44800;55.600;38.134;2023-05-21T08:02:28;6.35;;;3.13;;
59016;SDS011;44800;55.600;38.134;2023-05-21T08:04:57;3.95;;;2.40;;
59016;SDS011;44800;55.600;38.134;2023-05-21T08:07:30;3.85;;;2.28;;
59016;SDS011;44800;55.600;38.134;2023-05-21T08:10:00;3.58;;;2.40;;
59016;SDS011;44800;55.600;38.134;2023-05-21T08:12:31;3.40;;;2.70;;
59016;SDS011;44800;55.600;38.134;2023-05-21T08:14:59;6.38;;;3.35;;
59016;SDS011;44800;55.600;38.134;2023-05-21T08:17:30;2.42;;;2.10;;
59016;SDS011;44800;55.600;38.134;2023-05-21T08:19:59;4.35;;;2.50;;
59016;SDS011;44800;55.600;38.134;2023-05-21T08:22:30;5.30;;;3.03;;
59016;SDS011;44800;55.600;38.134;2023-05-21T08:24:59;4.20;;;2.53;;
59016;SDS011;44800;55.600;38.134;2023-05-21T08:27:29;3.40;;;2.60;;
59016;SDS011;44800;55.600;38.134;2023-05-21T08:29:57;4.32;;;3.35;;
59016;SDS011;44800;55.600;38.134;2023-05-21T08:32:26;5.72;;;2.53;;
59016;SDS011;44800;55.600;38.134;2023-05-21T08:34:54;3.55;;;2.83;;
59016;SDS011;44800;55.600;38.134;2023-05-21T08:37:23;4.43;;;2.55;;
59016;SDS011;44800;55.600;38.134;2023-05-21T08:39:51;3.63;;;2.33;;
59016;SDS011;44800;55.600;38.134;2023-05-21T08:42:23;4.53;;;2.78;;
59016;SDS011;44800;55.600;38.134;2023-05-21T08:45:03;3.35;;;2.10;;
59016;SDS011;44800;55.600;38.134;2023-05-21T08:47:33;2.17;;;1.98;;
59016;SDS011;44800;55.600;38.134;2023-05-21T08:50:02;4.93;;;2.45;;
59016;SDS011;44800;55.600;38.134;2023-05-21T08:52:32;4.10;;;2.30;;
59016;SDS011;44800;55.600;38.134;2023-05-21T08:55:00;2.97;;;2.72;;
59016;SDS011;44800;55.600;38.134;2023-05-21T08:57:32;3.55;;;2.63;;
59016;SDS011;44800;55.600;38.134;2023-05-21T09:00:00;4.55;;;2.42;;
59016;SDS011;44800;55.600;38.134;2023-05-21T09:02:33;3.13;;;2.60;;
59016;SDS011;44800;55.600;38.134;2023-05-21T09:05:04;4.35;;;2.67;;
59016;SDS011;44800;55.600;38.134;2023-05-21T09:07:35;4.30;;;3.20;;
59016;SDS011;44800;55.600;38.134;2023-05-21T09:10:06;4.07;;;3.67;;
59016;SDS011;44800;55.600;38.134;2023-05-21T09:12:37;4.70;;;3.20;;
59016;SDS011;44800;55.600;38.134;2023-05-21T09:15:06;6.70;;;3.30;;
59016;SDS011;44800;55.600;38.134;2023-05-21T09:17:35;4.63;;;3.50;;
59016;SDS011;44800;55.600;38.134;2023-05-21T09:20:07;5.55;;;3.90;;
59016;SDS011;44800;55.600;38.134;2023-05-21T09:22:41;5.63;;;3.40;;
59016;SDS011;44800;55.600;38.134;2023-05-21T09:25:10;5.05;;;3.10;;
59016;SDS011;44800;55.600;38.134;2023-05-21T09:27:41;5.13;;;3.33;;
59016;SDS011;44800;55.600;38.134;2023-05-21T09:30:10;8.00;;;3.17;;
59016;SDS011;44800;55.600;38.134;2023-05-21T09:32:39;4.75;;;3.53;;
59016;SDS011;44800;55.600;38.134;2023-05-21T09:35:09;6.07;;;3.50;;
59016;SDS011;44800;55.600;38.134;2023-05-21T09:37:39;5.00;;;2.88;;
59016;SDS011;44800;55.600;38.134;2023-05-21T09:40:10;4.32;;;3.20;;
59016;SDS011;44800;55.600;38.134;2023-05-21T09:42:41;3.75;;;3.35;;
59016;SDS011;44800;55.600;38.134;2023-05-21T09:45:10;7.20;;;3.80;;
59016;SDS011;44800;55.600;38.134;2023-05-21T09:47:42;5.40;;;3.97;;
59016;SDS011;44800;55.600;38.134;2023-05-21T09:50:11;3.63;;;3.25;;
59016;SDS011;44800;55.600;38.134;2023-05-21T09:52:41;4.60;;;3.97;;
59016;SDS011;44800;55.600;38.134;2023-05-21T09:55:10;4.93;;;3.67;;
59016;SDS011;44800;55.600;38.134;2023-05-21T09:57:40;4.40;;;3.70;;
59016;SDS011;44800;55.600;38.134;2023-05-21T10:00:16;4.07;;;3.17;;
59016;SDS011;44800;55.600;38.134;2023-05-21T10:02:46;6.00;;;4.10;;
59016;SDS011;44800;55.600;38.134;2023-05-21T10:05:15;5.13;;;3.03;;
59016;SDS011;44800;55.600;38.134;2023-05-21T10:07:47;3.90;;;2.67;;
59016;SDS011;44800;55.600;38.134;2023-05-21T10:10:18;7.43;;;2.80;;
59016;SDS011;44800;55.600;38.134;2023-05-21T10:12:49;6.20;;;2.75;;
59016;SDS011;44800;55.600;38.134;2023-05-21T10:15:20;2.90;;;2.30;;
59016;SDS011;44800;55.600;38.134;2023-05-21T10:17:50;2.90;;;2.40;;
59016;SDS011;44800;55.600;38.134;2023-05-21T10:20:20;4.15;;;2.65;;
59016;SDS011;44800;55.600;38.134;2023-05-21T10:22:49;3.72;;;2.20;;
59016;SDS011;44800;55.600;38.134;2023-05-21T10:25:18;4.68;;;2.63;;
59016;SDS011;44800;55.600;38.134;2023-05-21T10:27:49;2.58;;;2.10;;
59016;SDS011;44800;55.600;38.134;2023-05-21T10:30:17;3.40;;;2.30;;
59016;SDS011;44800;55.600;38.134;2023-05-21T10:32:46;3.47;;;2.08;;
59016;SDS011;44800;55.600;38.134;2023-05-21T10:35:15;4.05;;;2.40;;
59016;SDS011;44800;55.600;38.134;2023-05-21T10:37:45;2.65;;;2.10;;
59016;SDS011;44800;55.600;38.134;2023-05-21T10:40:13;4.82;;;2.00;;
59016;SDS011;44800;55.600;38.134;2023-05-21T10:42:47;3.47;;;1.80;;
59016;SDS011;44800;55.600;38.134;2023-05-21T10:45:35;3.80;;;2.05;;
59016;SDS011;44800;55.600;38.134;2023-05-21T10:51:03;3.38;;;2.20;;
59016;SDS011;44800;55.600;38.134;2023-05-21T10:53:42;2.35;;;2.13;;
59016;SDS011;44800;55.600;38.134;2023-05-21T10:56:20;3.67;;;1.98;;
59016;SDS011;44800;55.600;38.134;2023-05-21T11:01:36;4.03;;;2.20;;
59016;SDS011;44800;55.600;38.134;2023-05-21T11:04:05;4.25;;;2.42;;
59016;SDS011;44800;55.600;38.134;2023-05-21T11:06:34;2.90;;;2.28;;
59016;SDS011;44800;55.600;38.134;2023-05-21T11:09:10;3.42;;;2.08;;
59016;SDS011;44800;55.600;38.134;2023-05-21T11:11:40;5.25;;;2.60;;
59016;SDS011;44800;55.600;38.134;2023-05-21T11:14:32;3.45;;;2.08;;
59016;SDS011;44800;55.600;38.134;2023-05-21T11:17:07;2.72;;;2.53;;
59016;SDS011;44800;55.600;38.134;2023-05-21T11:19:38;3.85;;;1.95;;
59016;SDS011;44800;55.600;38.134;2023-05-21T11:22:08;4.10;;;2.42;;
59016;SDS011;44800;55.600;38.134;2023-05-21T11:24:47;2.55;;;2.30;;
59016;SDS011;44800;55.600;38.134;2023-05-21T11:27:29;3.15;;;2.50;;
59016;SDS011;44800;55.600;38.134;2023-05-21T11:30:04;3.53;;;2.83;;
59016;SDS011;44800;55.600;38.134;2023-05-21T11:32:38;4.32;;;2.15;;
59016;SDS011;44800;55.600;38.134;2023-05-21T11:35:07;3.55;;;2.65;;
59016;SDS011;44800;55.600;38.134;2023-05-21T11:37:36;3.33;;;2.30;;
59016;SDS011;44800;55.600;38.134;2023-05-21T11:40:17;3.03;;;2.58;;
59016;SDS011;44800;55.600;38.134;2023-05-21T11:42:47;2.65;;;2.28;;
59016;SDS011;44800;55.600;38.134;2023-05-21T11:45:17;3.20;;;2.67;;
59016;SDS011;44800;55.600;38.134;2023-05-21T11:47:48;3.10;;;2.60;;
59016;SDS011;44800;55.600;38.134;2023-05-21T11:50:17;7.32;;;3.35;;
59016;SDS011;44800;55.600;38.134;2023-05-21T11:52:47;4.25;;;2.88;;
59016;SDS011;44800;55.600;38.134;2023-05-21T11:55:20;6.07;;;2.83;;
59016;SDS011;44800;55.600;38.134;2023-05-21T11:57:51;2.70;;;2.20;;
59016;SDS011;44800;55.600;38.134;2023-05-21T12:00:21;3.38;;;2.25;;
59016;SDS011;44800;55.600;38.134;2023-05-21T12:02:51;2.35;;;2.15;;
59016;SDS011;44800;55.600;38.134;2023-05-21T12:05:22;2.65;;;2.33;;
59016;SDS011;44800;55.600;38.134;2023-05-21T12:07:51;9.25;;;2.35;;
59016;SDS011;44800;55.600;38.134;2023-05-21T12:10:22;3.42;;;2.35;;
59016;SDS011;44800;55.600;38.134;2023-05-21T12:12:50;2.53;;;2.22;;
59016;SDS011;44800;55.600;38.134;2023-05-21T12:15:22;2.80;;;2.15;;
59016;SDS011;44800;55.600;38.134;2023-05-21T12:17:53;3.35;;;2.55;;
59016;SDS011;44800;55.600;38.134;2023-05-21T12:20:24;2.53;;;2.30;;
59016;SDS011;44800;55.600;38.134;2023-05-21T12:22:58;3.15;;;2.25;;
59016;SDS011;44800;55.600;38.134;2023-05-21T12:25:27;5.47;;;2.35;;
59016;SDS011;44800;55.600;38.134;2023-05-21T12:27:55;3.92;;;2.42;;
59016;SDS011;44800;55.600;38.134;2023-05-21T12:30:24;4.38;;;2.30;;
59016;SDS011;44800;55.600;38.134;2023-05-21T12:32:57;3.13;;;1.88;;
59016;SDS011;44800;55.600;38.134;2023-05-21T12:35:28;2.30;;;1.50;;
59016;SDS011;44800;55.600;38.134;2023-05-21T12:37:59;2.83;;;2.50;;
59016;SDS011;44800;55.600;38.134;2023-05-21T12:40:35;2.13;;;1.90;;
59016;SDS011;44800;55.600;38.134;2023-05-21T12:43:05;3.38;;;2.42;;
59016;SDS011;44800;55.600;38.134;2023-05-21T12:45:33;2.15;;;1.80;;
59016;SDS011;44800;55.600;38.134;2023-05-21T12:48:06;4.07;;;2.40;;
59016;SDS011;44800;55.600;38.134;2023-05-21T12:50:37;3.55;;;2.08;;
59016;SDS011;44800;55.600;38.134;2023-05-21T12:53:07;3.38;;;2.10;;
59016;SDS011;44800;55.600;38.134;2023-05-21T12:55:38;3.92;;;2.58;;
59016;SDS011;44800;55.600;38.134;2023-05-21T12:58:06;3.45;;;2.13;;
59016;SDS011;44800;55.600;38.134;2023-05-21T13:00:35;3.03;;;2.20;;
59016;SDS011;44800;55.600;38.134;2023-05-21T13:03:05;5.38;;;4.20;;
59016;SDS011;44800;55.600;38.134;2023-05-21T13:05:34;6.28;;;2.75;;
59016;SDS011;44800;55.600;38.134;2023-05-21T13:08:02;2.05;;;1.83;;
59016;SDS011;44800;55.600;38.134;2023-05-21T13:10:31;4.40;;;1.85;;
59016;SDS011;44800;55.600;38.134;2023-05-21T13:12:59;2.42;;;1.98;;
59016;SDS011;44800;55.600;38.134;2023-05-21T13:15:28;2.38;;;1.85;;
59016;SDS011;44800;55.600;38.134;2023-05-21T13:17:56;2.40;;;2.00;;
59016;SDS011;44800;55.600;38.134;2023-05-21T13:20:28;1.73;;;1.52;;
59016;SDS011;44800;55.600;38.134;2023-05-21T13:22:57;6.25;;;2.20;;
59016;SDS011;44800;55.600;38.134;2023-05-21T13:25:26;2.50;;;2.30;;
59016;SDS011;44800;55.600;38.134;2023-05-21T13:27:57;2.60;;;1.85;;
59016;SDS011;44800;55.600;38.134;2023-05-21T13:30:30;2.05;;;1.58;;
59016;SDS011;44800;55.600;38.134;2023-05-21T13:33:04;2.03;;;1.55;;
59016;SDS011;44800;55.600;38.134;2023-05-21T13:35:43;3.55;;;1.80;;
59016;SDS011;44800;55.600;38.134;2023-05-21T13:38:18;2.28;;;1.83;;
59016;SDS011;44800;55.600;38.134;2023-05-21T13:40:49;5.35;;;1.80;;
59016;SDS011;44800;55.600;38.134;2023-05-21T13:43:19;2.22;;;1.45;;
59016;SDS011;44800;55.600;38.134;2023-05-21T13:45:51;2.83;;;1.52;;
59016;SDS011;44800;55.600;38.134;2023-05-21T13:48:21;2.65;;;1.73;;
59016;SDS011;44800;55.600;38.134;2023-05-21T13:50:53;3.50;;;1.80;;
59016;SDS011;44800;55.600;38.134;2023-05-21T13:53:24;3.23;;;1.80;;
59016;SDS011;44800;55.600;38.134;2023-05-21T13:55:53;2.47;;;1.77;;
59016;SDS011;44800;55.600;38.134;2023-05-21T13:58:23;2.15;;;1.50;;
59016;SDS011;44800;55.600;38.134;2023-05-21T14:00:57;3.70;;;1.58;;
59016;SDS011;44800;55.600;38.134;2023-05-21T14:03:28;1.95;;;1.77;;
59016;SDS011;44800;55.600;38.134;2023-05-21T14:06:00;2.65;;;1.75;;
59016;SDS011;44800;55.600;38.134;2023-05-21T14:08:33;4.53;;;1.77;;
59016;SDS011;44800;55.600;38.134;2023-05-21T14:11:06;3.03;;;1.83;;
59016;SDS011;44800;55.600;38.134;2023-05-21T14:13:38;3.35;;;2.10;;
59016;SDS011;44800;55.600;38.134;2023-05-21T14:16:07;2.33;;;1.83;;
59016;SDS011;44800;55.600;38.134;2023-05-21T14:18:35;4.03;;;2.00;;
59016;SDS011;44800;55.600;38.134;2023-05-21T14:21:05;2.47;;;2.10;;
59016;SDS011;44800;55.600;38.134;2023-05-21T14:23:33;6.05;;;2.22;;
59016;SDS011;44800;55.600;38.134;2023-05-21T14:26:03;2.58;;;1.83;;
59016;SDS011;44800;55.600;38.134;2023-05-21T14:28:32;3.85;;;2.22;;
59016;SDS011;44800;55.600;38.134;2023-05-21T14:31:01;3.35;;;2.78;;
59016;SDS011;44800;55.600;38.134;2023-05-21T14:33:29;4.85;;;2.40;;
59016;SDS011;44800;55.600;38.134;2023-05-21T14:35:58;4.53;;;2.75;;
59016;SDS011;44800;55.600;38.134;2023-05-21T14:38:28;6.38;;;2.63;;
59016;SDS011;44800;55.600;38.134;2023-05-21T14:40:57;3.97;;;2.65;;
59016;SDS011;44800;55.600;38.134;2023-05-21T14:43:25;4.00;;;2.83;;
59016;SDS011;44800;55.600;38.134;2023-05-21T14:45:54;3.95;;;2.72;;
59016;SDS011;44800;55.600;38.134;2023-05-21T14:48:22;3.22;;;2.80;;